Time;durP1;ratioP1;P1;durP2;ratioP2;P2;SDS_P1;SDS_P2;PMS_P1;PMS_P2;Temp;Humidity;BMP_temperature;BMP_pressure;BME280_temperature;BME280_humidity;BME280_pressure;Samples;Min_cycle;Max_cycle;Signal;HPM_P1;HPM_P2
2021/09/30 00:01:26;;;;;;;1.60;1.50;;;11.20;99.90;;;;;;5084165;28;20476;-55
2021/09/30 00:03:53;;;;;;;1.77;1.60;;;11.20;99.90;;;;;;5066168;28;20474;-50
2021/09/30 00:06:20;;;;;;;1.73;1.60;;;11.20;99.90;;;;;;5083404;28;20918;-54
2021/09/30 00:08:47;;;;;;;2.43;1.50;;;11.20;99.90;;;;;;5083224;28;20541;-55
2021/09/30 00:11:20;;;;;;;1.70;1.33;;;11.20;99.90;;;;;;5084204;28;20454;-55
2021/09/30 00:13:51;;;;;;;1.63;1.30;;;11.10;99.90;;;;;;5083927;28;20786;-53
2021/09/30 00:32:55;;;;;;;2.53;1.37;;;11.10;99.90;;;;;;5084097;28;20406;-55
2021/09/30 00:46:21;;;;;;;1.87;1.20;;;11.00;99.90;;;;;;5084469;28;20413;-51
2021/09/30 00:48:57;;;;;;;1.77;1.20;;;11.00;99.90;;;;;;5087761;28;20477;-49
2021/09/30 00:51:30;;;;;;;3.37;1.10;;;10.90;99.90;;;;;;5087485;28;20442;-50
2021/09/30 00:54:29;;;;;;;1.00;0.80;;;11.00;99.90;;;;;;5088437;28;20466;-47
2021/09/30 01:34:10;;;;;;;1.30;1.00;;;10.80;99.90;;;;;;5096882;28;20458;-52
2021/09/30 02:21:23;;;;;;;9.40;1.20;;;10.70;99.90;;;;;;5054274;28;20431;-54
2021/09/30 02:24:10;;;;;;;2.40;1.60;;;10.70;99.90;;;;;;5112816;28;20481;-50
2021/09/30 02:29:30;;;;;;;1.47;1.00;;;10.60;99.90;;;;;;5114777;28;20526;-53
2021/09/30 03:00:08;;;;;;;3.50;1.70;;;10.70;99.90;;;;;;5117437;28;20467;-54
2021/09/30 03:02:39;;;;;;;1.40;1.03;;;10.70;99.90;;;;;;5116189;28;20517;-56
2021/09/30 03:05:07;;;;;;;1.40;1.30;;;10.60;99.90;;;;;;5115897;28;20422;-53
2021/09/30 03:07:36;;;;;;;4.10;1.40;;;10.60;99.90;;;;;;5115481;28;20495;-53
2021/09/30 03:10:04;;;;;;;4.73;1.20;;;10.60;99.90;;;;;;5114522;28;20448;-53
2021/09/30 03:12:34;;;;;;;1.60;1.50;;;10.60;99.90;;;;;;5115151;28;20449;-50
2021/09/30 03:15:09;;;;;;;6.20;1.13;;;10.60;99.90;;;;;;5115028;28;20500;-49
2021/09/30 03:17:45;;;;;;;1.80;1.53;;;10.60;99.90;;;;;;5114986;28;20437;-55
2021/09/30 03:20:33;;;;;;;1.60;1.33;;;10.70;99.90;;;;;;5114857;28;20469;-56
2021/09/30 03:23:08;;;;;;;1.20;1.07;;;10.70;99.90;;;;;;5114732;28;20527;-54
2021/09/30 03:25:36;;;;;;;3.53;1.60;;;10.70;99.90;;;;;;5114987;28;20425;-54
2021/09/30 03:28:04;;;;;;;1.07;0.93;;;10.70;99.90;;;;;;5114765;28;20442;-55
2021/09/30 03:30:31;;;;;;;1.77;1.60;;;10.70;99.90;;;;;;5114936;28;20437;-57
2021/09/30 03:33:03;;;;;;;1.80;1.10;;;10.60;99.90;;;;;;5114771;28;20548;-56
2021/09/30 03:35:30;;;;;;;1.40;0.93;;;10.60;99.90;;;;;;5114826;28;20488;-55
2021/09/30 03:37:56;;;;;;;1.90;1.40;;;10.60;99.90;;;;;;5114755;28;20448;-53
2021/09/30 03:40:24;;;;;;;1.60;1.50;;;10.60;99.90;;;;;;5114281;28;20442;-54
2021/09/30 03:42:51;;;;;;;2.90;1.50;;;10.60;99.90;;;;;;5114950;28;20457;-55
2021/09/30 03:45:18;;;;;;;1.97;1.57;;;10.60;99.90;;;;;;5114690;28;20437;-53
2021/09/30 03:47:45;;;;;;;2.43;1.60;;;10.50;99.90;;;;;;5114711;28;20456;-54
2021/09/30 03:50:16;;;;;;;1.40;1.10;;;10.60;99.90;;;;;;5114547;28;20465;-54
2021/09/30 03:52:56;;;;;;;2.97;1.23;;;10.60;99.90;;;;;;5115026;28;20445;-53
2021/09/30 03:55:35;;;;;;;4.13;1.43;;;10.60;99.90;;;;;;5114827;28;20485;-50
2021/09/30 04:00:47;;;;;;;1.43;1.20;;;10.50;99.90;;;;;;5113831;28;20471;-53
2021/09/30 04:03:14;;;;;;;2.33;1.50;;;10.50;99.90;;;;;;5114586;28;20495;-53
2021/09/30 04:05:41;;;;;;;3.40;1.13;;;10.50;99.90;;;;;;5114290;28;20477;-53
2021/09/30 04:08:08;;;;;;;1.30;1.20;;;10.50;99.90;;;;;;5114697;28;20513;-53
2021/09/30 04:10:36;;;;;;;1.27;1.10;;;10.50;99.90;;;;;;5114673;28;20471;-47
2021/09/30 04:13:04;;;;;;;1.87;1.37;;;10.40;99.90;;;;;;5114644;28;20515;-52
2021/09/30 04:15:31;;;;;;;2.00;0.93;;;10.40;99.90;;;;;;5113861;28;20500;-53
2021/09/30 04:17:58;;;;;;;1.90;1.30;;;10.40;99.90;;;;;;5114354;28;20472;-51
2021/09/30 04:20:24;;;;;;;4.50;1.40;;;10.40;99.90;;;;;;5113994;28;20425;-56
2021/09/30 04:22:59;;;;;;;1.63;1.40;;;10.40;99.90;;;;;;5116941;28;20449;-56
2021/09/30 04:25:26;;;;;;;1.50;1.00;;;10.40;99.90;;;;;;5117817;28;20468;-52
2021/09/30 04:27:53;;;;;;;1.70;1.40;;;10.40;99.90;;;;;;5118325;28;20441;-56
2021/09/30 04:30:20;;;;;;;1.67;1.50;;;10.40;99.90;;;;;;5118372;28;20487;-57
2021/09/30 04:32:50;;;;;;;6.40;1.57;;;10.40;99.90;;;;;;5118380;28;20418;-55
2021/09/30 04:35:16;;;;;;;1.97;1.47;;;10.40;99.90;;;;;;5118038;28;20496;-55
2021/09/30 04:37:43;;;;;;;1.33;0.93;;;10.40;99.90;;;;;;5117664;28;20441;-57
2021/09/30 04:40:11;;;;;;;1.43;1.10;;;10.40;99.90;;;;;;5117915;28;20512;-57
2021/09/30 04:42:39;;;;;;;7.30;1.80;;;10.40;99.90;;;;;;5117958;28;20463;-54
2021/09/30 04:45:08;;;;;;;1.57;1.40;;;10.40;99.90;;;;;;5117591;28;20488;-52
2021/09/30 04:47:35;;;;;;;2.00;1.10;;;10.40;99.90;;;;;;5118041;28;20430;-56
2021/09/30 04:50:02;;;;;;;4.00;1.50;;;10.40;99.90;;;;;;5117409;28;20465;-54
2021/09/30 04:52:35;;;;;;;1.53;1.30;;;10.40;99.90;;;;;;5118030;28;20471;-53
2021/09/30 04:55:01;;;;;;;2.30;1.20;;;10.40;99.90;;;;;;5118210;28;20485;-52
2021/09/30 04:57:28;;;;;;;3.57;1.87;;;10.40;99.90;;;;;;5118043;28;20491;-57
2021/09/30 04:59:56;;;;;;;3.40;1.30;;;10.40;99.90;;;;;;5117125;28;20859;-54
2021/09/30 05:02:24;;;;;;;4.97;1.50;;;10.40;99.90;;;;;;5108269;28;20506;-53
2021/09/30 05:04:51;;;;;;;5.43;1.47;;;10.40;99.90;;;;;;5112730;28;20472;-55
2021/09/30 05:07:18;;;;;;;5.43;1.10;;;10.50;99.90;;;;;;5110752;28;20929;-57
2021/09/30 05:09:47;;;;;;;2.60;1.63;;;10.50;99.90;;;;;;5112795;28;20469;-57
2021/09/30 05:12:16;;;;;;;1.60;1.50;;;10.60;99.90;;;;;;5108028;28;20454;-56
2021/09/30 05:14:42;;;;;;;3.00;1.43;;;10.70;99.90;;;;;;5102489;28;20515;-55
2021/09/30 05:17:09;;;;;;;3.20;1.27;;;10.70;99.90;;;;;;5101483;28;20422;-57
2021/09/30 05:19:37;;;;;;;1.20;1.10;;;10.70;99.90;;;;;;5101231;28;20471;-54
2021/09/30 05:22:04;;;;;;;1.43;1.20;;;10.70;99.90;;;;;;5101349;28;20471;-55
2021/09/30 05:24:31;;;;;;;5.47;1.53;;;10.80;99.90;;;;;;5100800;28;20479;-54
2021/09/30 05:27:00;;;;;;;1.37;1.00;;;10.80;99.90;;;;;;5102203;28;20490;-52
2021/09/30 05:29:26;;;;;;;2.00;1.40;;;10.90;99.90;;;;;;5101636;28;20453;-50
2021/09/30 05:31:53;;;;;;;2.00;1.43;;;10.90;99.90;;;;;;5100828;28;20441;-53
2021/09/30 05:34:20;;;;;;;2.70;1.30;;;11.00;99.90;;;;;;5101173;28;20495;-54
2021/09/30 05:36:48;;;;;;;1.40;1.30;;;11.10;99.90;;;;;;5100642;28;20477;-57
2021/09/30 05:39:15;;;;;;;1.50;1.23;;;11.20;99.90;;;;;;5099373;28;20502;-56
2021/09/30 05:41:41;;;;;;;3.77;1.60;;;11.30;99.90;;;;;;5105591;28;20441;-50
2021/09/30 05:44:10;;;;;;;3.17;1.27;;;11.30;99.90;;;;;;5104026;28;20779;-52
2021/09/30 05:46:42;;;;;;;1.60;1.33;;;11.40;99.90;;;;;;5103764;28;20517;-48
2021/09/30 05:49:09;;;;;;;3.67;1.40;;;11.40;99.90;;;;;;5104898;28;20434;-54
2021/09/30 05:51:36;;;;;;;3.83;1.53;;;11.50;99.90;;;;;;5102687;28;20440;-56
2021/09/30 05:54:04;;;;;;;1.60;1.50;;;11.60;99.90;;;;;;5105865;28;20449;-56
2021/09/30 05:56:31;;;;;;;4.23;1.53;;;11.60;99.90;;;;;;5112637;28;20843;-55
2021/09/30 05:58:58;;;;;;;2.87;1.30;;;11.60;99.90;;;;;;5112312;28;20442;-50
2021/09/30 06:01:45;;;;;;;1.87;1.50;;;11.70;99.90;;;;;;5108481;28;20489;-50
2021/09/30 06:12:30;;;;;;;2.10;1.13;;;11.80;99.90;;;;;;5100304;28;20453;-55
2021/09/30 06:15:02;;;;;;;6.00;1.67;;;11.80;99.90;;;;;;5102075;28;20445;-53
2021/09/30 06:17:31;;;;;;;5.63;1.83;;;12.00;99.90;;;;;;5101581;28;20686;-54
2021/09/30 06:19:57;;;;;;;1.30;1.03;;;12.00;99.90;;;;;;5102779;28;20449;-58
2021/09/30 06:22:24;;;;;;;3.53;1.30;;;11.90;99.90;;;;;;5101457;28;20445;-56
2021/09/30 06:24:53;;;;;;;2.60;1.30;;;11.90;99.90;;;;;;5102627;28;20441;-54
2021/09/30 06:27:20;;;;;;;1.20;0.97;;;11.90;99.90;;;;;;5103335;28;20914;-57
2021/09/30 06:29:46;;;;;;;3.40;1.60;;;11.90;99.90;;;;;;5102094;28;20442;-48
2021/09/30 06:32:13;;;;;;;1.40;1.23;;;11.90;99.90;;;;;;5102945;28;20445;-51
2021/09/30 06:34:41;;;;;;;4.67;2.20;;;11.80;99.90;;;;;;5101780;28;20454;-52
2021/09/30 06:37:08;;;;;;;1.50;1.17;;;11.90;99.90;;;;;;5102452;28;20616;-54
2021/09/30 06:39:35;;;;;;;1.50;1.13;;;12.00;99.90;;;;;;5102014;28;20446;-48
2021/09/30 06:42:04;;;;;;;2.13;1.20;;;11.90;99.90;;;;;;5102487;28;20469;-55
2021/09/30 06:44:31;;;;;;;1.20;0.93;;;11.90;99.90;;;;;;5101987;28;20486;-53
2021/09/30 06:46:57;;;;;;;3.57;1.50;;;11.90;99.90;;;;;;5102198;28;20504;-54
2021/09/30 06:49:24;;;;;;;1.77;1.30;;;11.90;99.90;;;;;;5101965;28;20483;-54
2021/09/30 06:51:51;;;;;;;1.40;1.07;;;11.80;99.90;;;;;;5102299;28;20522;-53
2021/09/30 06:54:18;;;;;;;2.70;1.30;;;11.80;99.90;;;;;;5102259;28;20506;-55
2021/09/30 06:56:48;;;;;;;1.70;1.33;;;11.90;99.90;;;;;;5102092;28;20519;-57
2021/09/30 06:59:19;;;;;;;1.50;1.20;;;11.80;99.90;;;;;;5102868;28;20434;-51
2021/09/30 07:01:47;;;;;;;7.40;2.10;;;11.80;99.90;;;;;;5102326;28;20929;-57
2021/09/30 07:04:13;;;;;;;3.00;1.60;;;11.90;99.90;;;;;;5102445;28;20449;-51
2021/09/30 07:06:40;;;;;;;1.20;1.10;;;11.90;99.90;;;;;;5102133;28;20477;-51
2021/09/30 07:09:07;;;;;;;3.73;1.37;;;11.90;99.90;;;;;;5101496;28;20492;-54
2021/09/30 07:11:34;;;;;;;7.53;1.50;;;11.90;99.90;;;;;;5100951;28;20530;-50
2021/09/30 07:14:01;;;;;;;4.10;1.40;;;12.00;99.90;;;;;;5101915;28;20441;-52
2021/09/30 07:16:29;;;;;;;3.70;1.73;;;12.00;99.90;;;;;;5101211;28;20546;-56
2021/09/30 07:18:55;;;;;;;4.20;1.70;;;12.20;99.90;;;;;;5100969;28;20475;-52
2021/09/30 07:21:22;;;;;;;1.60;1.07;;;12.20;99.90;;;;;;5101096;28;20491;-49
2021/09/30 07:23:49;;;;;;;1.80;1.20;;;12.20;99.90;;;;;;5101600;28;20449;-55
2021/09/30 07:26:15;;;;;;;2.73;1.30;;;12.20;99.90;;;;;;5101534;28;20946;-53
2021/09/30 07:28:42;;;;;;;3.87;2.00;;;12.20;99.90;;;;;;5101396;28;20452;-51
2021/09/30 07:31:09;;;;;;;5.10;1.30;;;12.20;99.90;;;;;;5100489;28;20499;-56
2021/09/30 07:33:37;;;;;;;1.40;1.30;;;12.30;99.90;;;;;;5100745;28;20513;-55
2021/09/30 07:36:04;;;;;;;3.30;1.40;;;12.30;99.90;;;;;;5100827;28;20546;-55
2021/09/30 07:38:31;;;;;;;4.10;1.10;;;12.30;99.90;;;;;;5100521;28;20471;-50
2021/09/30 07:41:01;;;;;;;1.57;1.37;;;12.40;99.90;;;;;;5100728;28;20893;-54
2021/09/30 07:43:28;;;;;;;1.63;1.13;;;12.30;99.90;;;;;;5101051;28;20475;-56
2021/09/30 07:45:55;;;;;;;1.80;1.60;;;12.40;99.90;;;;;;5100746;28;20511;-53
2021/09/30 07:48:22;;;;;;;2.47;1.27;;;12.40;99.90;;;;;;5101002;28;20899;-55
2021/09/30 07:50:50;;;;;;;7.10;2.17;;;12.30;99.90;;;;;;5100460;28;20925;-56
2021/09/30 07:53:17;;;;;;;4.03;1.90;;;12.40;99.90;;;;;;5100157;28;20468;-56
2021/09/30 07:55:45;;;;;;;5.33;2.07;;;12.40;99.90;;;;;;5100137;28;20481;-55
2021/09/30 07:58:12;;;;;;;1.40;1.30;;;12.40;99.90;;;;;;5103922;28;20503;-55
2021/09/30 08:00:39;;;;;;;2.73;1.80;;;12.40;99.90;;;;;;5104346;28;20457;-56
2021/09/30 08:03:06;;;;;;;7.10;2.20;;;12.50;99.90;;;;;;5104546;28;20449;-49
2021/09/30 08:05:36;;;;;;;2.93;1.40;;;12.50;99.90;;;;;;5104180;28;20445;-54
2021/09/30 08:08:04;;;;;;;8.50;2.90;;;12.60;99.90;;;;;;5104264;28;20841;-53
2021/09/30 08:10:31;;;;;;;5.73;3.10;;;12.70;99.90;;;;;;5104177;28;20441;-54
2021/09/30 08:12:58;;;;;;;3.50;2.37;;;12.70;99.90;;;;;;5103905;28;20499;-57
2021/09/30 08:15:25;;;;;;;1.53;1.30;;;12.80;99.90;;;;;;5103549;28;20492;-53
2021/09/30 08:17:52;;;;;;;2.90;1.63;;;12.90;99.90;;;;;;5103782;28;20452;-55
2021/09/30 08:20:21;;;;;;;3.03;1.40;;;13.10;99.90;;;;;;5102905;28;20445;-55
2021/09/30 08:22:50;;;;;;;1.90;1.40;;;13.30;99.90;;;;;;5103631;28;20445;-53
2021/09/30 08:25:18;;;;;;;2.67;1.80;;;13.30;99.90;;;;;;5104022;28;20753;-50
2021/09/30 08:27:45;;;;;;;3.37;2.17;;;13.40;99.90;;;;;;5104614;28;20454;-54
2021/09/30 08:30:12;;;;;;;3.20;1.90;;;13.50;99.90;;;;;;5103126;28;20453;-53
2021/09/30 08:32:38;;;;;;;5.57;1.70;;;13.60;99.90;;;;;;5103546;28;20465;-57
2021/09/30 08:35:07;;;;;;;7.53;2.30;;;13.60;99.90;;;;;;5103190;28;20467;-56
2021/09/30 08:37:33;;;;;;;4.47;1.90;;;13.70;99.90;;;;;;5102695;28;20510;-53
2021/09/30 08:40:00;;;;;;;3.13;1.70;;;13.80;99.90;;;;;;5102288;28;20445;-52
2021/09/30 08:42:31;;;;;;;3.93;1.70;;;14.00;99.90;;;;;;5102443;28;20933;-53
2021/09/30 08:44:58;;;;;;;2.20;1.80;;;14.40;99.90;;;;;;5102704;28;20445;-56
2021/09/30 08:47:27;;;;;;;1.70;1.30;;;14.70;99.90;;;;;;5102717;28;20465;-52
2021/09/30 08:49:53;;;;;;;3.40;1.50;;;15.20;99.90;;;;;;5102715;28;20454;-57
2021/09/30 08:52:20;;;;;;;6.63;1.63;;;16.10;99.90;;;;;;5102751;28;20480;-55
2021/09/30 08:54:47;;;;;;;2.00;1.37;;;17.10;99.90;;;;;;5102780;28;20475;-50
2021/09/30 08:57:14;;;;;;;2.20;1.77;;;17.50;99.90;;;;;;5102247;28;20489;-56
2021/09/30 08:59:42;;;;;;;2.70;1.50;;;17.60;99.90;;;;;;5101132;28;20522;-55
2021/09/30 09:02:11;;;;;;;2.63;1.40;;;17.70;99.90;;;;;;5101398;28;20534;-56
2021/09/30 09:04:52;;;;;;;7.70;1.63;;;17.60;99.90;;;;;;5101278;28;20511;-57
2021/09/30 09:07:23;;;;;;;3.10;1.80;;;17.80;99.90;;;;;;5100630;28;20856;-57
2021/09/30 09:09:51;;;;;;;2.70;1.50;;;18.20;99.90;;;;;;5101287;28;20559;-57
2021/09/30 09:12:19;;;;;;;1.40;1.00;;;18.60;99.90;;;;;;5100335;28;20469;-57
2021/09/30 09:14:48;;;;;;;2.80;1.20;;;18.60;99.90;;;;;;5100561;28;20461;-55
2021/09/30 09:17:17;;;;;;;3.17;1.37;;;18.40;99.90;;;;;;5100513;28;20493;-56
2021/09/30 09:19:46;;;;;;;2.60;1.70;;;18.00;99.90;;;;;;5100346;28;20971;-53
2021/09/30 09:22:15;;;;;;;3.33;1.30;;;17.70;99.90;;;;;;5100214;28;20478;-54
2021/09/30 09:24:59;;;;;;;1.80;1.43;;;17.40;99.90;;;;;;5099270;28;20454;-54
2021/09/30 09:27:43;;;;;;;2.77;1.43;;;17.00;99.90;;;;;;5099861;28;20465;-56
2021/09/30 09:30:26;;;;;;;2.30;1.20;;;16.70;99.90;;;;;;5099473;28;20440;-52
2021/09/30 09:33:02;;;;;;;1.40;1.20;;;16.20;99.90;;;;;;5100686;28;20465;-57
2021/09/30 09:35:29;;;;;;;1.87;1.37;;;15.90;99.90;;;;;;5100779;28;20882;-53
2021/09/30 09:38:02;;;;;;;2.37;1.27;;;15.80;99.90;;;;;;5100924;28;20564;-56
2021/09/30 09:40:29;;;;;;;3.00;1.30;;;15.90;99.90;;;;;;5100445;28;20496;-55
2021/09/30 09:42:56;;;;;;;1.77;1.17;;;16.00;99.90;;;;;;5099600;28;20477;-54
2021/09/30 09:45:22;;;;;;;1.30;1.07;;;15.90;99.90;;;;;;5099309;28;20445;-53
2021/09/30 09:47:50;;;;;;;3.63;1.30;;;15.80;99.90;;;;;;5098813;28;20465;-53
2021/09/30 09:50:19;;;;;;;2.07;1.30;;;15.80;99.90;;;;;;5098985;28;20937;-50
2021/09/30 09:52:49;;;;;;;2.17;1.13;;;15.80;99.90;;;;;;5099025;28;20469;-55
2021/09/30 09:55:19;;;;;;;6.20;1.10;;;15.70;99.90;;;;;;5098562;28;20975;-54
2021/09/30 09:58:00;;;;;;;3.77;1.40;;;15.60;99.90;;;;;;5098780;28;20542;-54
2021/09/30 10:00:27;;;;;;;1.87;1.23;;;15.90;99.90;;;;;;5098791;28;20483;-52
2021/09/30 10:02:56;;;;;;;1.53;1.03;;;17.20;99.90;;;;;;5098101;28;20466;-54
2021/09/30 10:05:23;;;;;;;3.93;1.40;;;18.60;99.90;;;;;;5097866;28;20445;-52
2021/09/30 10:07:50;;;;;;;2.13;1.40;;;19.70;99.90;;;;;;5097261;28;20469;-53
2021/09/30 10:10:17;;;;;;;1.53;1.10;;;20.50;99.90;;;;;;5097303;28;20441;-55
2021/09/30 10:12:44;;;;;;;4.80;1.57;;;21.00;99.90;;;;;;5097388;28;20860;-53
2021/09/30 10:15:12;;;;;;;3.13;1.40;;;21.30;99.50;;;;;;5097005;28;20522;-55
2021/09/30 10:17:39;;;;;;;2.13;1.20;;;21.40;98.40;;;;;;5097041;28;20557;-57
2021/09/30 10:20:09;;;;;;;1.47;1.07;;;21.70;99.10;;;;;;5096351;28;20441;-53
2021/09/30 10:22:36;;;;;;;1.30;1.10;;;22.10;97.10;;;;;;5097346;28;20469;-57
2021/09/30 10:25:03;;;;;;;1.40;1.10;;;22.10;94.40;;;;;;5096987;28;20816;-56
2021/09/30 10:27:30;;;;;;;3.33;1.20;;;22.10;92.70;;;;;;5097495;28;20465;-57
2021/09/30 10:29:57;;;;;;;1.50;1.20;;;22.00;92.50;;;;;;5098070;28;20441;-55
2021/09/30 10:32:25;;;;;;;6.37;3.70;;;22.20;93.40;;;;;;5098271;28;20534;-54
2021/09/30 10:34:57;;;;;;;3.37;1.50;;;22.30;93.80;;;;;;5097053;28;20926;-55
2021/09/30 10:37:29;;;;;;;2.63;2.07;;;22.00;90.80;;;;;;5096880;28;20485;-54
2021/09/30 10:40:15;;;;;;;3.10;1.47;;;21.60;91.70;;;;;;5096606;28;20500;-52
2021/09/30 10:42:43;;;;;;;3.40;1.30;;;21.20;91.20;;;;;;5096737;28;20469;-55
2021/09/30 10:45:12;;;;;;;1.43;1.07;;;20.80;93.00;;;;;;5097085;28;20430;-54
2021/09/30 10:47:39;;;;;;;2.53;1.10;;;20.70;93.30;;;;;;5096654;28;20465;-53
2021/09/30 10:50:06;;;;;;;2.67;1.50;;;20.40;93.70;;;;;;5096650;28;20491;-54
2021/09/30 10:52:36;;;;;;;1.57;1.03;;;20.40;94.70;;;;;;5096991;28;21007;-57
2021/09/30 10:55:28;;;;;;;1.77;1.03;;;20.00;94.10;;;;;;5098235;28;20442;-53
2021/09/30 10:57:56;;;;;;;1.40;1.30;;;19.60;94.30;;;;;;5088474;28;20489;-55
2021/09/30 11:00:45;;;;;;;2.37;1.83;;;19.20;94.20;;;;;;5096789;28;20449;-55
2021/09/30 11:03:21;;;;;;;3.00;1.40;;;18.80;96.00;;;;;;5096522;28;20469;-54
2021/09/30 11:06:15;;;;;;;2.57;1.50;;;18.70;97.10;;;;;;5097040;28;20742;-54
2021/09/30 11:08:47;;;;;;;2.40;1.27;;;18.40;97.70;;;;;;5096549;28;20470;-54
2021/09/30 11:11:17;;;;;;;3.97;1.40;;;18.30;98.40;;;;;;5096716;28;20427;-52
2021/09/30 11:13:45;;;;;;;1.47;1.10;;;18.20;99.00;;;;;;5097003;28;20473;-53
2021/09/30 11:16:14;;;;;;;2.73;1.60;;;18.10;98.90;;;;;;5096836;28;20472;-52
2021/09/30 11:18:46;;;;;;;1.47;1.00;;;18.00;99.80;;;;;;5096277;28;20479;-55
2021/09/30 11:21:47;;;;;;;2.30;1.53;;;17.90;99.90;;;;;;5096529;28;20430;-55
2021/09/30 11:24:28;;;;;;;2.13;1.07;;;17.80;99.90;;;;;;5096975;28;20533;-51
2021/09/30 11:27:32;;;;;;;2.23;1.23;;;17.60;99.90;;;;;;5097386;28;20498;-53
2021/09/30 11:30:24;;;;;;;3.63;1.80;;;17.60;99.90;;;;;;5096595;28;20902;-55
2021/09/30 11:32:57;;;;;;;1.63;1.33;;;17.70;99.90;;;;;;5096960;28;20477;-55
2021/09/30 11:35:24;;;;;;;5.43;1.20;;;17.50;99.90;;;;;;5096995;28;20445;-54
2021/09/30 11:37:51;;;;;;;3.83;1.80;;;17.40;99.90;;;;;;5096621;28;20484;-54
2021/09/30 11:40:21;;;;;;;2.13;1.70;;;17.30;99.90;;;;;;5096817;28;20434;-56
2021/09/30 11:42:51;;;;;;;2.40;1.50;;;17.20;99.90;;;;;;5096519;28;20469;-59
2021/09/30 11:45:21;;;;;;;2.60;1.20;;;17.00;99.90;;;;;;5096494;28;20457;-51
2021/09/30 11:47:49;;;;;;;4.00;1.23;;;17.00;99.90;;;;;;5096463;28;20475;-53
2021/09/30 11:50:19;;;;;;;2.33;1.60;;;16.90;99.90;;;;;;5096953;28;20445;-54
2021/09/30 11:53:00;;;;;;;5.27;1.33;;;16.90;99.90;;;;;;5097181;28;20759;-55
2021/09/30 11:55:40;;;;;;;4.13;2.00;;;16.90;99.90;;;;;;5096921;28;20510;-55
2021/09/30 11:58:09;;;;;;;1.53;1.33;;;16.80;99.90;;;;;;5096712;28;21026;-55
2021/09/30 12:00:37;;;;;;;3.03;2.00;;;16.70;99.90;;;;;;5097274;28;20956;-53
2021/09/30 12:03:05;;;;;;;3.30;2.33;;;16.60;99.90;;;;;;5096480;28;20484;-54
2021/09/30 12:05:34;;;;;;;2.93;1.93;;;16.50;99.90;;;;;;5096941;28;20921;-54
2021/09/30 12:08:04;;;;;;;2.10;1.77;;;16.50;99.90;;;;;;5098056;28;20472;-58
2021/09/30 12:10:36;;;;;;;1.50;1.10;;;16.50;99.90;;;;;;5098218;28;20524;-54
2021/09/30 12:13:12;;;;;;;8.70;1.43;;;16.40;99.90;;;;;;5096753;28;20542;-55
2021/09/30 12:15:39;;;;;;;1.77;1.40;;;16.40;99.90;;;;;;5096246;28;20824;-53
2021/09/30 12:18:15;;;;;;;3.30;1.40;;;16.40;99.90;;;;;;5096790;28;20500;-56
2021/09/30 12:20:49;;;;;;;1.80;1.43;;;16.30;99.90;;;;;;5096956;28;20418;-54
2021/09/30 12:23:16;;;;;;;2.17;1.97;;;16.20;99.90;;;;;;5096665;28;20560;-54
2021/09/30 12:25:45;;;;;;;2.10;1.27;;;16.10;99.90;;;;;;5096268;28;20441;-55
2021/09/30 12:28:12;;;;;;;3.00;1.20;;;16.10;99.90;;;;;;5096301;28;20564;-53
2021/09/30 12:30:41;;;;;;;2.40;1.77;;;16.10;99.90;;;;;;5096744;28;20532;-54
2021/09/30 12:33:09;;;;;;;2.40;1.20;;;16.20;99.90;;;;;;5096395;28;20465;-54
2021/09/30 12:35:38;;;;;;;3.30;1.40;;;16.50;99.90;;;;;;5096723;28;20441;-54
2021/09/30 12:38:06;;;;;;;2.60;1.73;;;16.90;99.90;;;;;;5096083;28;20547;-55
2021/09/30 12:40:39;;;;;;;2.27;1.00;;;17.20;99.90;;;;;;5095820;28;20900;-53
2021/09/30 12:43:09;;;;;;;2.13;1.20;;;17.40;99.90;;;;;;5097798;28;20429;-54
2021/09/30 12:45:38;;;;;;;3.67;1.53;;;17.50;99.90;;;;;;5100398;28;20781;-54
2021/09/30 12:48:08;;;;;;;9.87;1.70;;;17.60;99.90;;;;;;5099908;28;20433;-53
2021/09/30 12:50:41;;;;;;;3.10;1.40;;;17.80;99.90;;;;;;5099720;28;20422;-55
2021/09/30 12:53:10;;;;;;;2.93;1.53;;;17.90;99.90;;;;;;5099463;28;20472;-54
2021/09/30 12:55:37;;;;;;;2.20;1.10;;;18.10;99.90;;;;;;5099577;28;20882;-56
2021/09/30 12:58:04;;;;;;;5.40;3.13;;;18.40;99.90;;;;;;5099550;28;20480;-55
2021/09/30 13:00:36;;;;;;;1.77;1.27;;;18.60;99.90;;;;;;5099561;28;20452;-55
2021/09/30 13:03:14;;;;;;;3.00;1.40;;;18.80;99.90;;;;;;5099502;28;20516;-52
2021/09/30 13:05:48;;;;;;;1.67;1.20;;;18.60;99.90;;;;;;5099368;28;20843;-56
2021/09/30 13:08:35;;;;;;;3.87;1.40;;;18.60;99.90;;;;;;5099115;28;20441;-55
2021/09/30 13:11:28;;;;;;;3.60;1.20;;;18.50;98.50;;;;;;5099055;28;20440;-54
2021/09/30 13:14:14;;;;;;;3.00;1.00;;;18.50;98.50;;;;;;5099387;28;20786;-53
2021/09/30 13:16:42;;;;;;;1.30;1.00;;;18.70;98.90;;;;;;5098879;28;20457;-56
2021/09/30 13:19:09;;;;;;;1.83;1.13;;;18.60;98.40;;;;;;5099585;28;21100;-53
2021/09/30 13:21:57;;;;;;;4.60;1.13;;;18.30;99.40;;;;;;5100889;28;20441;-55
2021/09/30 13:24:24;;;;;;;3.23;1.50;;;18.30;98.00;;;;;;5094631;28;20466;-55
2021/09/30 13:26:50;;;;;;;2.60;1.30;;;18.20;96.60;;;;;;5100315;28;20441;-54
2021/09/30 13:29:17;;;;;;;2.73;1.60;;;18.00;97.30;;;;;;5099289;28;20453;-52
2021/09/30 13:31:46;;;;;;;3.10;1.50;;;17.80;98.70;;;;;;5098896;28;20437;-55
2021/09/30 13:34:12;;;;;;;4.20;1.40;;;17.70;99.00;;;;;;5098885;28;20465;-55
2021/09/30 13:36:39;;;;;;;2.30;1.40;;;17.80;99.90;;;;;;5098940;28;20464;-55
2021/09/30 13:39:07;;;;;;;1.60;1.50;;;18.00;99.20;;;;;;5098102;28;20572;-55
2021/09/30 13:41:34;;;;;;;1.80;1.30;;;18.20;98.00;;;;;;5098257;28;20441;-55
2021/09/30 13:44:00;;;;;;;3.10;1.63;;;18.40;99.90;;;;;;5098637;28;20794;-53
2021/09/30 13:46:27;;;;;;;1.97;1.47;;;18.60;96.70;;;;;;5098165;28;20453;-53
2021/09/30 13:48:55;;;;;;;2.27;2.10;;;18.90;95.90;;;;;;5098626;28;20831;-55
2021/09/30 13:51:22;;;;;;;4.70;2.33;;;19.00;95.70;;;;;;5098218;28;20518;-54
2021/09/30 13:53:49;;;;;;;3.10;1.90;;;18.70;95.30;;;;;;5097416;28;20530;-55
2021/09/30 13:56:15;;;;;;;4.73;1.67;;;18.70;95.00;;;;;;5097985;28;20422;-55
2021/09/30 13:58:42;;;;;;;2.63;1.10;;;18.80;95.40;;;;;;5098141;28;20477;-55
2021/09/30 14:01:08;;;;;;;4.10;1.90;;;18.90;94.10;;;;;;5098373;28;20441;-55
2021/09/30 14:03:35;;;;;;;1.20;0.97;;;18.90;94.90;;;;;;5097562;28;20449;-54
2021/09/30 14:06:03;;;;;;;2.00;1.40;;;18.60;92.70;;;;;;5097864;28;20425;-54
2021/09/30 14:08:32;;;;;;;2.50;1.83;;;18.30;93.60;;;;;;5098015;28;20456;-53
2021/09/30 14:10:59;;;;;;;2.60;1.17;;;18.00;95.00;;;;;;5098106;28;20430;-51
2021/09/30 14:13:25;;;;;;;5.87;1.73;;;18.00;95.20;;;;;;5098306;28;20452;-55
2021/09/30 14:15:52;;;;;;;6.13;1.20;;;17.90;94.90;;;;;;5097700;28;20863;-56
2021/09/30 14:18:19;;;;;;;3.10;1.70;;;17.80;94.30;;;;;;5098851;28;20805;-52
2021/09/30 14:20:47;;;;;;;4.47;1.50;;;17.70;96.20;;;;;;5098997;28;20445;-55
2021/09/30 14:23:15;;;;;;;7.50;1.33;;;17.70;94.80;;;;;;5099782;28;20454;-56
2021/09/30 14:25:42;;;;;;;2.40;1.00;;;17.70;96.70;;;;;;5098387;28;20437;-52
2021/09/30 14:28:09;;;;;;;3.33;1.43;;;17.70;95.10;;;;;;5098250;28;20437;-50
2021/09/30 14:30:36;;;;;;;2.40;2.20;;;17.60;95.90;;;;;;5097421;28;20452;-53
2021/09/30 14:33:02;;;;;;;4.90;1.77;;;17.60;96.40;;;;;;5097612;28;20461;-52
2021/09/30 14:35:29;;;;;;;7.17;1.80;;;17.60;97.00;;;;;;5098087;28;20477;-52
2021/09/30 14:37:56;;;;;;;1.90;1.43;;;17.60;96.40;;;;;;5099443;28;20526;-51
2021/09/30 14:40:24;;;;;;;2.10;1.00;;;17.60;97.70;;;;;;5098755;28;20453;-52
2021/09/30 14:42:51;;;;;;;3.77;1.80;;;17.60;97.50;;;;;;5097906;28;20446;-52
2021/09/30 14:45:18;;;;;;;4.73;1.93;;;17.40;96.10;;;;;;5097706;28;20495;-55
2021/09/30 14:47:45;;;;;;;1.20;1.00;;;17.30;96.70;;;;;;5097173;28;20487;-53
2021/09/30 14:50:11;;;;;;;1.00;0.87;;;17.20;97.50;;;;;;5097224;28;20473;-54
2021/09/30 14:52:38;;;;;;;1.93;1.17;;;17.10;97.70;;;;;;5097227;28;20502;-56
2021/09/30 14:55:06;;;;;;;2.57;1.57;;;17.10;98.20;;;;;;5097251;28;20461;-55
2021/09/30 14:57:34;;;;;;;2.70;1.50;;;17.00;97.80;;;;;;5097469;28;20503;-52
2021/09/30 15:00:01;;;;;;;3.33;1.23;;;17.00;99.00;;;;;;5097144;28;20953;-55
2021/09/30 15:02:29;;;;;;;3.30;1.10;;;17.00;99.90;;;;;;5096945;28;20438;-56
2021/09/30 15:04:56;;;;;;;1.73;1.20;;;17.00;99.30;;;;;;5096787;28;20511;-55
2021/09/30 15:07:24;;;;;;;3.77;1.67;;;16.90;99.10;;;;;;5097261;28;21004;-53
2021/09/30 15:09:51;;;;;;;2.17;1.37;;;16.90;99.70;;;;;;5097195;28;20469;-54
2021/09/30 15:12:17;;;;;;;3.70;1.40;;;16.80;99.40;;;;;;5097422;28;20787;-52
2021/09/30 15:14:45;;;;;;;2.87;1.20;;;16.70;99.20;;;;;;5096514;28;20461;-53
2021/09/30 15:17:22;;;;;;;1.77;1.20;;;16.60;99.30;;;;;;5097025;28;20445;-52
2021/09/30 15:19:50;;;;;;;6.33;1.60;;;16.60;99.90;;;;;;5096346;28;20489;-53
2021/09/30 15:22:18;;;;;;;1.53;1.40;;;16.50;99.90;;;;;;5097288;28;20524;-55
2021/09/30 15:24:44;;;;;;;1.97;1.20;;;16.50;99.90;;;;;;5097323;28;20528;-54
2021/09/30 15:27:12;;;;;;;1.70;1.33;;;16.50;99.90;;;;;;5096440;28;20430;-54
2021/09/30 15:29:40;;;;;;;2.50;1.50;;;16.40;99.90;;;;;;5096774;28;20472;-55
2021/09/30 15:32:08;;;;;;;3.93;1.40;;;16.40;99.90;;;;;;5096540;28;20475;-54